Time;durP1;ratioP1;P1;durP2;ratioP2;P2;SDS_P1;SDS_P2;PMS_P1;PMS_P2;Temp;Humidity;BMP_temperature;BMP_pressure;BME280_temperature;BME280_humidity;BME280_pressure;Samples;Min_cycle;Max_cycle;Signal;HPM_P1;HPM_P2
2024/03/12 00:00:37;;;;;;;10.52;5.65;;;;;;;;;;5029100;28;20036;-69
2024/03/12 00:03:06;;;;;;;15.98;5.30;;;;;;;;;;5023962;28;20021;-69
2024/03/12 00:05:32;;;;;;;11.60;5.85;;;;;;;;;;5021854;28;20014;-69
2024/03/12 00:07:58;;;;;;;13.77;5.38;;;;;;;;;;5029400;28;20025;-69
2024/03/12 00:10:24;;;;;;;15.07;6.88;;;;;;;;;;5028320;28;20025;-70
2024/03/12 00:12:51;;;;;;;15.95;5.88;;;;;;;;;;5028584;28;20022;-69
2024/03/12 00:15:17;;;;;;;17.48;8.55;;;;;;;;;;5033176;28;20029;-69
2024/03/12 00:17:46;;;;;;;14.90;6.68;;;;;;;;;;5020396;28;20030;-69
2024/03/12 00:20:18;;;;;;;15.10;7.63;;;;;;;;;;5023066;28;20026;-69
2024/03/12 00:22:47;;;;;;;18.77;9.32;;;;;;;;;;5033027;28;20063;-69
2024/03/12 00:25:19;;;;;;;23.20;8.60;;;;;;;;;;5025732;28;20029;-69
2024/03/12 00:27:44;;;;;;;26.35;11.18;;;;;;;;;;5025137;28;20029;-69
2024/03/12 00:30:10;;;;;;;27.10;11.50;;;;;;;;;;5014251;28;20067;-69
2024/03/12 00:32:39;;;;;;;23.80;9.68;;;;;;;;;;5029013;28;20025;-69
2024/03/12 00:35:05;;;;;;;27.98;12.10;;;;;;;;;;5020936;28;20523;-69
2024/03/12 00:37:30;;;;;;;26.23;11.45;;;;;;;;;;5022138;28;20404;-69
2024/03/12 00:39:55;;;;;;;27.60;9.98;;;;;;;;;;5030832;28;20025;-69
2024/03/12 00:42:22;;;;;;;22.73;9.60;;;;;;;;;;5021519;28;20033;-69
2024/03/12 00:44:48;;;;;;;20.65;9.35;;;;;;;;;;5024078;28;20284;-69
2024/03/12 00:47:14;;;;;;;24.00;9.23;;;;;;;;;;5015955;28;20613;-69
2024/03/12 00:49:39;;;;;;;23.92;10.32;;;;;;;;;;5016490;28;20754;-70
2024/03/12 00:52:05;;;;;;;14.23;5.93;;;;;;;;;;5024414;28;20025;-69
2024/03/12 00:54:33;;;;;;;21.90;9.10;;;;;;;;;;5024510;28;20032;-69
2024/03/12 00:56:58;;;;;;;22.50;6.85;;;;;;;;;;5026135;28;20029;-69
2024/03/12 00:59:24;;;;;;;30.50;13.05;;;;;;;;;;5033887;28;20338;-69
2024/03/12 01:01:49;;;;;;;34.28;14.00;;;;;;;;;;5038637;28;20021;-69
2024/03/12 01:04:16;;;;;;;28.90;10.53;;;;;;;;;;5024626;28;20107;-70
2024/03/12 01:06:44;;;;;;;18.10;6.95;;;;;;;;;;5023291;28;20255;-69
2024/03/12 01:09:09;;;;;;;34.78;14.45;;;;;;;;;;5027573;28;21341;-69
2024/03/12 01:11:37;;;;;;;37.60;13.77;;;;;;;;;;5028809;28;20061;-69
2024/03/12 01:14:03;;;;;;;41.63;15.45;;;;;;;;;;5034236;28;20010;-69
2024/03/12 01:16:29;;;;;;;44.45;16.67;;;;;;;;;;5031429;28;20032;-69
2024/03/12 01:18:56;;;;;;;24.15;9.18;;;;;;;;;;5034723;28;20024;-69
2024/03/12 01:21:21;;;;;;;37.42;15.90;;;;;;;;;;5031029;28;20415;-69
2024/03/12 01:23:48;;;;;;;50.38;18.17;;;;;;;;;;5024769;28;20029;-69
2024/03/12 01:26:15;;;;;;;48.67;19.45;;;;;;;;;;5028043;28;20016;-69
2024/03/12 01:28:41;;;;;;;62.25;21.75;;;;;;;;;;5027607;28;20030;-69
2024/03/12 01:31:06;;;;;;;55.90;21.95;;;;;;;;;;5030050;28;20023;-69
2024/03/12 01:33:31;;;;;;;65.43;23.53;;;;;;;;;;5043723;28;20078;-69
2024/03/12 01:36:05;;;;;;;71.17;26.83;;;;;;;;;;5020107;28;20283;-69
2024/03/12 01:38:34;;;;;;;72.88;26.38;;;;;;;;;;5031969;28;20789;-69
2024/03/12 01:40:59;;;;;;;79.30;25.48;;;;;;;;;;5028628;28;20160;-69
2024/03/12 01:43:27;;;;;;;57.13;21.38;;;;;;;;;;5029539;28;20154;-69
2024/03/12 01:45:53;;;;;;;72.53;25.52;;;;;;;;;;5035115;28;20074;-69
2024/03/12 01:48:18;;;;;;;52.73;19.67;;;;;;;;;;5023359;28;20026;-69
2024/03/12 01:50:43;;;;;;;69.10;25.77;;;;;;;;;;5037947;28;20272;-69
2024/03/12 01:53:09;;;;;;;95.30;31.30;;;;;;;;;;5035901;28;20276;-69
2024/03/12 01:55:37;;;;;;;97.00;32.47;;;;;;;;;;5022794;28;20026;-69
2024/03/12 01:58:03;;;;;;;91.50;31.75;;;;;;;;;;5029693;28;20033;-69
2024/03/12 02:00:32;;;;;;;89.15;31.08;;;;;;;;;;5024893;28;20021;-69
2024/03/12 02:02:59;;;;;;;91.80;30.13;;;;;;;;;;5023513;28;20428;-69
2024/03/12 02:05:24;;;;;;;83.68;28.60;;;;;;;;;;5033387;28;20028;-69
2024/03/12 02:07:50;;;;;;;84.85;30.42;;;;;;;;;;5028735;28;20029;-69
2024/03/12 02:10:16;;;;;;;81.75;30.90;;;;;;;;;;5029060;28;20032;-69
2024/03/12 02:12:44;;;;;;;92.85;31.52;;;;;;;;;;5036655;28;20040;-69
2024/03/12 02:15:09;;;;;;;84.95;32.22;;;;;;;;;;5040123;28;20025;-69
2024/03/12 02:17:34;;;;;;;83.05;30.80;;;;;;;;;;5032801;28;20025;-69
2024/03/12 02:20:00;;;;;;;92.77;31.50;;;;;;;;;;5036272;28;20526;-69
2024/03/12 02:22:25;;;;;;;87.82;32.60;;;;;;;;;;5033158;28;20268;-69
2024/03/12 02:24:51;;;;;;;86.18;31.55;;;;;;;;;;5030633;28;20026;-69
2024/03/12 02:27:17;;;;;;;98.65;39.60;;;;;;;;;;5031293;28;20021;-69
2024/03/12 02:29:44;;;;;;;104.38;38.13;;;;;;;;;;5027680;28;20056;-69
2024/03/12 02:32:09;;;;;;;99.80;33.38;;;;;;;;;;5032573;28;20026;-69
2024/03/12 02:34:34;;;;;;;91.93;30.65;;;;;;;;;;5026958;28;20018;-69
2024/03/12 02:37:01;;;;;;;88.00;31.43;;;;;;;;;;5034516;28;20028;-69
2024/03/12 02:39:27;;;;;;;95.43;31.63;;;;;;;;;;5039230;28;20304;-69
2024/03/12 02:41:52;;;;;;;90.50;32.00;;;;;;;;;;5033131;28;20044;-69
2024/03/12 02:44:17;;;;;;;83.88;31.52;;;;;;;;;;5032605;28;20735;-69
2024/03/12 02:46:43;;;;;;;83.27;32.10;;;;;;;;;;5040197;28;20036;-69
2024/03/12 02:49:09;;;;;;;75.22;28.50;;;;;;;;;;5030649;28;20823;-69
2024/03/12 02:51:34;;;;;;;94.05;31.75;;;;;;;;;;5026881;28;20105;-69
2024/03/12 02:53:59;;;;;;;95.57;34.08;;;;;;;;;;5041203;28;20017;-69
2024/03/12 02:56:24;;;;;;;87.60;30.67;;;;;;;;;;5030970;28;20048;-69
2024/03/12 02:58:50;;;;;;;78.00;31.83;;;;;;;;;;5029056;28;20040;-69
2024/03/12 03:01:15;;;;;;;85.07;30.83;;;;;;;;;;5024842;28;20074;-69
2024/03/12 03:03:40;;;;;;;87.93;33.13;;;;;;;;;;5036144;28;20366;-69
2024/03/12 03:06:06;;;;;;;80.47;31.08;;;;;;;;;;5026558;28;20449;-69
2024/03/12 03:08:31;;;;;;;61.13;17.65;;;;;;;;;;5041169;28;20104;-69
2024/03/12 03:10:56;;;;;;;88.32;29.60;;;;;;;;;;5035239;28;20018;-69
2024/03/12 03:13:21;;;;;;;76.03;29.70;;;;;;;;;;5037766;28;20021;-69
2024/03/12 03:15:46;;;;;;;84.37;30.03;;;;;;;;;;5027549;28;20272;-69
2024/03/12 03:18:12;;;;;;;81.88;28.88;;;;;;;;;;5026869;28;20338;-69
2024/03/12 03:20:37;;;;;;;85.22;29.70;;;;;;;;;;5026576;28;20029;-69
2024/03/12 03:23:03;;;;;;;84.07;29.07;;;;;;;;;;5027366;28;20064;-69
2024/03/12 03:25:28;;;;;;;73.38;26.15;;;;;;;;;;5027475;28;20374;-70
2024/03/12 03:27:53;;;;;;;80.72;27.90;;;;;;;;;;5028937;28;20482;-70
2024/03/12 03:30:18;;;;;;;61.13;21.65;;;;;;;;;;5028250;28;20056;-69
2024/03/12 03:32:44;;;;;;;61.55;23.17;;;;;;;;;;5027701;28;20065;-69
2024/03/12 03:35:11;;;;;;;64.15;23.17;;;;;;;;;;5020270;28;20025;-70
2024/03/12 03:37:36;;;;;;;49.97;21.40;;;;;;;;;;5028724;28;20049;-69
2024/03/12 03:40:04;;;;;;;60.65;23.95;;;;;;;;;;5031570;28;20527;-69
2024/03/12 03:42:29;;;;;;;60.35;24.50;;;;;;;;;;5028482;28;20048;-69
2024/03/12 03:44:54;;;;;;;54.13;18.33;;;;;;;;;;5028749;28;20021;-70
2024/03/12 03:47:20;;;;;;;51.25;20.58;;;;;;;;;;5028587;28;20415;-69
2024/03/12 03:49:47;;;;;;;52.77;19.90;;;;;;;;;;5029012;28;20026;-69
2024/03/12 03:52:12;;;;;;;58.03;21.52;;;;;;;;;;5031406;28;20261;-69
2024/03/12 03:54:38;;;;;;;52.17;19.02;;;;;;;;;;5027955;28;20025;-69
2024/03/12 03:57:03;;;;;;;51.63;19.70;;;;;;;;;;5020211;28;20052;-69
2024/03/12 03:59:30;;;;;;;47.65;18.25;;;;;;;;;;5030294;28;20018;-69
2024/03/12 04:01:56;;;;;;;38.28;16.08;;;;;;;;;;5029453;28;20057;-69
2024/03/12 04:04:22;;;;;;;39.57;17.10;;;;;;;;;;5028540;28;20053;-69
2024/03/12 04:06:48;;;;;;;42.28;16.98;;;;;;;;;;5032618;28;20274;-69
2024/03/12 04:09:13;;;;;;;38.28;16.95;;;;;;;;;;5026858;28;20022;-69
2024/03/12 04:11:38;;;;;;;39.13;15.02;;;;;;;;;;5028476;28;20022;-69
2024/03/12 04:14:03;;;;;;;41.60;14.60;;;;;;;;;;5025275;28;20021;-69
2024/03/12 04:16:31;;;;;;;31.10;13.00;;;;;;;;;;5028415;28;20033;-69
2024/03/12 04:18:59;;;;;;;34.60;14.02;;;;;;;;;;5026364;28;20067;-69
2024/03/12 04:21:24;;;;;;;37.05;13.27;;;;;;;;;;5028425;28;20018;-68
2024/03/12 04:23:50;;;;;;;38.85;15.73;;;;;;;;;;5023041;28;20076;-68
2024/03/12 04:26:15;;;;;;;28.10;13.40;;;;;;;;;;5027851;28;20831;-68
2024/03/12 04:28:40;;;;;;;33.53;12.73;;;;;;;;;;5028271;28;20156;-69
2024/03/12 04:31:07;;;;;;;33.97;13.77;;;;;;;;;;5028014;28;20018;-68
2024/03/12 04:33:33;;;;;;;27.40;11.88;;;;;;;;;;5027407;28;20439;-68
2024/03/12 04:35:58;;;;;;;30.38;11.95;;;;;;;;;;5030295;28;20116;-68
2024/03/12 04:38:25;;;;;;;28.17;11.52;;;;;;;;;;5031122;28;20531;-69
2024/03/12 04:40:51;;;;;;;31.30;12.05;;;;;;;;;;5024757;28;20028;-72
2024/03/12 04:43:18;;;;;;;33.67;13.05;;;;;;;;;;5026472;28;20083;-68
2024/03/12 04:45:43;;;;;;;35.05;14.68;;;;;;;;;;5024777;28;20117;-68
2024/03/12 04:48:09;;;;;;;35.17;13.73;;;;;;;;;;5025236;28;20587;-68
2024/03/12 04:50:35;;;;;;;33.80;14.98;;;;;;;;;;5031558;28;20017;-68
2024/03/12 04:53:00;;;;;;;39.50;15.60;;;;;;;;;;5030507;28;20473;-68
2024/03/12 04:55:25;;;;;;;34.97;15.07;;;;;;;;;;5018985;28;20053;-68
2024/03/12 04:57:50;;;;;;;38.47;15.37;;;;;;;;;;5019759;28;20273;-68
2024/03/12 05:00:18;;;;;;;44.33;17.13;;;;;;;;;;5028622;28;20252;-68
2024/03/12 05:02:47;;;;;;;44.17;17.70;;;;;;;;;;5029996;28;20025;-68
2024/03/12 05:05:20;;;;;;;48.85;20.10;;;;;;;;;;5026928;28;20083;-68
2024/03/12 05:07:46;;;;;;;46.25;17.33;;;;;;;;;;5029725;28;20024;-68
2024/03/12 05:10:11;;;;;;;52.50;19.60;;;;;;;;;;5028019;28;20021;-68
2024/03/12 05:12:36;;;;;;;42.30;18.35;;;;;;;;;;5030260;28;20484;-68
2024/03/12 05:15:02;;;;;;;50.10;20.33;;;;;;;;;;5023998;28;20029;-68
2024/03/12 05:17:27;;;;;;;50.97;20.08;;;;;;;;;;5022072;28;20029;-68
2024/03/12 05:19:53;;;;;;;45.08;18.77;;;;;;;;;;5024992;28;20053;-68
2024/03/12 05:22:18;;;;;;;46.83;19.05;;;;;;;;;;5025625;28;20064;-68
2024/03/12 05:24:43;;;;;;;53.20;20.88;;;;;;;;;;5027522;28;20489;-68
2024/03/12 05:27:08;;;;;;;49.67;20.83;;;;;;;;;;5026118;28;20018;-68
2024/03/12 05:29:42;;;;;;;43.88;18.20;;;;;;;;;;5024004;28;20679;-68
2024/03/12 05:32:25;;;;;;;50.58;19.85;;;;;;;;;;5025909;28;20025;-68
2024/03/12 05:34:58;;;;;;;48.85;20.77;;;;;;;;;;5028757;28;20022;-68
2024/03/12 05:37:29;;;;;;;56.45;21.33;;;;;;;;;;5023617;28;20030;-68
2024/03/12 05:40:12;;;;;;;52.72;26.15;;;;;;;;;;5025082;28;20021;-68
2024/03/12 05:48:12;;;;;;;53.20;20.80;;;;;;;;;;5025334;28;20075;-68
2024/03/12 05:50:38;;;;;;;53.05;20.55;;;;;;;;;;5022951;28;20022;-68
2024/03/12 05:53:03;;;;;;;48.40;19.83;;;;;;;;;;5024217;28;20028;-68
2024/03/12 05:55:28;;;;;;;63.80;27.88;;;;;;;;;;5025182;28;20033;-68
2024/03/12 05:57:53;;;;;;;61.23;22.90;;;;;;;;;;5025989;28;20125;-68
2024/03/12 06:00:18;;;;;;;63.65;22.58;;;;;;;;;;5028694;28;20271;-68
2024/03/12 06:02:44;;;;;;;53.28;21.73;;;;;;;;;;5024717;28;20029;-68
2024/03/12 06:05:12;;;;;;;56.88;22.30;;;;;;;;;;5025120;28;20037;-68
2024/03/12 06:07:39;;;;;;;60.97;22.88;;;;;;;;;;5018871;28;20038;-68
2024/03/12 06:10:05;;;;;;;60.53;23.38;;;;;;;;;;5020424;28;20026;-68
2024/03/12 06:12:31;;;;;;;54.50;21.58;;;;;;;;;;5020512;28;20029;-68
2024/03/12 06:14:56;;;;;;;61.00;22.10;;;;;;;;;;5023520;28;20535;-68
2024/03/12 06:17:23;;;;;;;64.83;22.30;;;;;;;;;;5024045;28;20104;-69
2024/03/12 06:19:49;;;;;;;75.45;23.88;;;;;;;;;;5020554;28;20279;-69
2024/03/12 06:22:14;;;;;;;62.37;21.47;;;;;;;;;;5018297;28;20046;-69
2024/03/12 06:24:39;;;;;;;63.60;22.73;;;;;;;;;;5017912;28;20304;-68
2024/03/12 06:27:04;;;;;;;65.70;22.53;;;;;;;;;;5026121;28;20268;-68
2024/03/12 06:29:29;;;;;;;63.15;23.60;;;;;;;;;;5025278;28;20406;-68
2024/03/12 06:31:55;;;;;;;62.97;23.33;;;;;;;;;;5021960;28;20024;-68
2024/03/12 06:34:21;;;;;;;60.55;23.13;;;;;;;;;;5019577;28;20290;-68
2024/03/12 06:36:57;;;;;;;58.95;21.73;;;;;;;;;;5022801;28;20025;-68
2024/03/12 06:39:23;;;;;;;64.90;22.55;;;;;;;;;;5021294;28;20029;-68
2024/03/12 06:41:48;;;;;;;76.15;28.77;;;;;;;;;;5023798;28;20033;-68
2024/03/12 06:44:15;;;;;;;63.92;23.48;;;;;;;;;;5026774;28;20029;-68
2024/03/12 06:46:41;;;;;;;71.90;29.42;;;;;;;;;;5024547;28;20072;-68
2024/03/12 06:49:09;;;;;;;67.05;25.05;;;;;;;;;;5025369;28;20017;-68
2024/03/12 06:51:34;;;;;;;79.60;28.40;;;;;;;;;;5025894;28;20049;-68
2024/03/12 06:53:59;;;;;;;65.28;24.60;;;;;;;;;;5027397;28;20052;-69
2024/03/12 06:56:28;;;;;;;71.55;24.30;;;;;;;;;;5022081;28;20396;-69
2024/03/12 06:58:54;;;;;;;71.20;23.15;;;;;;;;;;5019912;28;20054;-69
2024/03/12 07:01:19;;;;;;;77.75;25.33;;;;;;;;;;5025281;28;20102;-68
2024/03/12 07:03:44;;;;;;;67.57;25.67;;;;;;;;;;5026867;28;20041;-68
2024/03/12 07:06:09;;;;;;;60.03;22.38;;;;;;;;;;5030997;28;20627;-68
2024/03/12 07:08:38;;;;;;;66.05;23.48;;;;;;;;;;5023059;28;20021;-69
2024/03/12 07:11:03;;;;;;;64.93;22.40;;;;;;;;;;5026157;28;20030;-68
2024/03/12 07:13:28;;;;;;;59.42;21.00;;;;;;;;;;5021845;28;20473;-69
2024/03/12 07:15:54;;;;;;;58.97;21.20;;;;;;;;;;5021160;28;20053;-68
2024/03/12 07:18:21;;;;;;;56.50;20.13;;;;;;;;;;5027993;28;20051;-68
2024/03/12 07:20:46;;;;;;;63.13;23.05;;;;;;;;;;5027087;28;20264;-69
2024/03/12 07:23:13;;;;;;;55.28;21.33;;;;;;;;;;5025155;28;20028;-69
2024/03/12 07:25:38;;;;;;;60.08;21.23;;;;;;;;;;5028770;28;20025;-68
2024/03/12 07:28:06;;;;;;;60.43;20.20;;;;;;;;;;5024367;28;20063;-68
2024/03/12 07:30:32;;;;;;;61.80;20.50;;;;;;;;;;5033216;28;20821;-69
2024/03/12 07:32:57;;;;;;;56.50;21.83;;;;;;;;;;5029494;28;20025;-68
2024/03/12 07:35:22;;;;;;;49.50;18.70;;;;;;;;;;5027164;28;20396;-68
2024/03/12 07:37:48;;;;;;;55.72;19.70;;;;;;;;;;5042195;28;20259;-68
2024/03/12 07:40:15;;;;;;;62.25;21.95;;;;;;;;;;5035087;28;20030;-68
2024/03/12 07:42:42;;;;;;;60.05;21.20;;;;;;;;;;5037266;28;20372;-68
2024/03/12 07:45:11;;;;;;;52.58;19.65;;;;;;;;;;5023874;28;20056;-68
2024/03/12 07:47:39;;;;;;;64.45;21.17;;;;;;;;;;5031165;28;20032;-68
2024/03/12 07:50:05;;;;;;;60.97;21.70;;;;;;;;;;5032135;28;20029;-68
2024/03/12 07:52:30;;;;;;;71.15;25.35;;;;;;;;;;5027297;28;20100;-68
2024/03/12 07:54:56;;;;;;;67.25;24.90;;;;;;;;;;5030412;28;20029;-68
2024/03/12 07:57:21;;;;;;;66.00;22.83;;;;;;;;;;5029622;28;20433;-68
2024/03/12 07:59:47;;;;;;;72.20;24.80;;;;;;;;;;5030545;28;20057;-68
2024/03/12 08:02:13;;;;;;;68.97;23.33;;;;;;;;;;5027357;28;20315;-68
2024/03/12 08:04:42;;;;;;;59.47;22.65;;;;;;;;;;5029682;28;20343;-68
2024/03/12 08:07:08;;;;;;;73.90;22.80;;;;;;;;;;5024869;28;20095;-68
2024/03/12 08:09:33;;;;;;;66.47;21.55;;;;;;;;;;5035721;28;20169;-68
2024/03/12 08:11:58;;;;;;;59.70;21.53;;;;;;;;;;5035760;28;20044;-68
2024/03/12 08:14:23;;;;;;;65.88;21.95;;;;;;;;;;5022603;28;20276;-68
2024/03/12 08:16:49;;;;;;;60.42;21.92;;;;;;;;;;5023972;28;20089;-68
2024/03/12 08:19:14;;;;;;;58.83;22.00;;;;;;;;;;5025700;28;20043;-68
2024/03/12 08:21:39;;;;;;;61.67;22.30;;;;;;;;;;5027828;28;20107;-68
2024/03/12 08:24:05;;;;;;;65.55;24.25;;;;;;;;;;5023340;28;20275;-68
2024/03/12 08:26:33;;;;;;;67.53;24.10;;;;;;;;;;5026546;28;20108;-68
2024/03/12 08:28:58;;;;;;;69.55;24.90;;;;;;;;;;5036177;28;20013;-68
2024/03/12 08:31:29;;;;;;;57.13;21.20;;;;;;;;;;5030114;28;20033;-69
2024/03/12 08:33:54;;;;;;;60.65;20.75;;;;;;;;;;5031223;28;20275;-69
2024/03/12 08:36:21;;;;;;;64.40;21.05;;;;;;;;;;5034567;28;20477;-68
2024/03/12 08:38:47;;;;;;;65.03;22.38;;;;;;;;;;5035176;28;20540;-68
2024/03/12 08:41:12;;;;;;;62.17;20.63;;;;;;;;;;5031082;28;20146;-68
2024/03/12 08:43:37;;;;;;;33.70;12.13;;;;;;;;;;5030666;28;20017;-68
2024/03/12 08:46:03;;;;;;;49.70;14.80;;;;;;;;;;5030046;28;20021;-68
2024/03/12 08:48:29;;;;;;;59.65;21.85;;;;;;;;;;5034265;28;20731;-68
2024/03/12 08:50:56;;;;;;;47.10;18.48;;;;;;;;;;5032348;28;20052;-69
2024/03/12 08:53:21;;;;;;;39.25;14.50;;;;;;;;;;5035477;28;20017;-68
2024/03/12 08:55:46;;;;;;;61.67;20.88;;;;;;;;;;5034924;28;20020;-69
2024/03/12 08:58:11;;;;;;;63.23;20.63;;;;;;;;;;5032149;28;20107;-68
2024/03/12 09:00:37;;;;;;;57.60;17.42;;;;;;;;;;5028952;28;20299;-68
2024/03/12 09:03:04;;;;;;;46.53;18.10;;;;;;;;;;5030194;28;20055;-69
2024/03/12 09:05:30;;;;;;;71.43;20.55;;;;;;;;;;5025781;28;20037;-68
2024/03/12 09:07:55;;;;;;;63.17;22.15;;;;;;;;;;5030570;28;20014;-69
2024/03/12 09:10:21;;;;;;;60.65;22.42;;;;;;;;;;5035201;28;20025;-69
2024/03/12 09:12:46;;;;;;;56.05;19.33;;;;;;;;;;5031966;28;20052;-69
2024/03/12 09:15:12;;;;;;;58.83;21.17;;;;;;;;;;5030093;28;20434;-68
2024/03/12 09:17:40;;;;;;;53.60;20.27;;;;;;;;;;5034585;28;20494;-68
2024/03/12 09:20:06;;;;;;;53.08;19.17;;;;;;;;;;5026802;28;20029;-69
2024/03/12 09:22:32;;;;;;;53.67;20.55;;;;;;;;;;5032403;28;20067;-69
2024/03/12 09:24:57;;;;;;;52.95;18.50;;;;;;;;;;5034108;28;20369;-69
2024/03/12 09:27:25;;;;;;;32.88;12.20;;;;;;;;;;5021972;28;20021;-69
2024/03/12 09:29:50;;;;;;;56.15;19.80;;;;;;;;;;5030300;28;20472;-69
2024/03/12 09:32:15;;;;;;;39.70;14.90;;;;;;;;;;5030029;28;20113;-69
2024/03/12 09:34:42;;;;;;;60.00;21.67;;;;;;;;;;5030700;28;20032;-69
2024/03/12 09:37:07;;;;;;;58.05;19.52;;;;;;;;;;5029753;28;20257;-69
2024/03/12 09:39:34;;;;;;;56.00;20.95;;;;;;;;;;5029701;28;20022;-69
2024/03/12 09:42:00;;;;;;;51.95;19.58;;;;;;;;;;5029307;28;20013;-69
2024/03/12 09:44:25;;;;;;;51.42;20.77;;;;;;;;;;5028943;28;20036;-69
2024/03/12 09:46:51;;;;;;;52.17;19.38;;;;;;;;;;5034181;28;20053;-69
2024/03/12 09:49:19;;;;;;;58.00;20.75;;;;;;;;;;5029349;28;20018;-70
2024/03/12 09:51:44;;;;;;;51.58;20.63;;;;;;;;;;5039060;28;20025;-68
2024/03/12 09:54:10;;;;;;;56.70;21.45;;;;;;;;;;5026285;28;20542;-68
2024/03/12 09:56:35;;;;;;;53.45;20.73;;;;;;;;;;5029828;28;20048;-68
2024/03/12 09:59:00;;;;;;;53.33;18.20;;;;;;;;;;5034158;28;20460;-68
2024/03/12 10:01:25;;;;;;;52.72;21.30;;;;;;;;;;5029424;28;20049;-68
2024/03/12 10:03:54;;;;;;;55.63;20.30;;;;;;;;;;5030343;28;20031;-68
2024/03/12 10:06:19;;;;;;;47.17;16.83;;;;;;;;;;5028585;28;20271;-68
2024/03/12 10:08:44;;;;;;;53.85;17.65;;;;;;;;;;5029400;28;20025;-68
2024/03/12 10:11:09;;;;;;;47.80;19.60;;;;;;;;;;5032790;28;20463;-68
2024/03/12 10:13:36;;;;;;;53.15;20.38;;;;;;;;;;5021839;28;20025;-68
2024/03/12 10:16:03;;;;;;;49.38;20.92;;;;;;;;;;5022001;28;20067;-68
2024/03/12 10:18:37;;;;;;;53.63;18.15;;;;;;;;;;5026604;28;20021;-68
2024/03/12 10:21:02;;;;;;;56.00;20.92;;;;;;;;;;5028635;28;20025;-68
2024/03/12 10:23:29;;;;;;;55.35;18.00;;;;;;;;;;5026781;28;20040;-68
2024/03/12 10:26:09;;;;;;;56.80;19.80;;;;;;;;;;5030163;28;20021;-68
2024/03/12 10:28:34;;;;;;;40.38;15.00;;;;;;;;;;5023446;28;20025;-68
2024/03/12 10:31:08;;;;;;;55.77;19.93;;;;;;;;;;5029004;28;20025;-68
2024/03/12 10:33:36;;;;;;;43.00;15.90;;;;;;;;;;5030752;28;20267;-68
2024/03/12 10:36:01;;;;;;;51.38;19.50;;;;;;;;;;5029171;28;20025;-68
2024/03/12 10:38:27;;;;;;;53.50;20.88;;;;;;;;;;5031464;28;20025;-69
2024/03/12 10:40:56;;;;;;;51.75;17.90;;;;;;;;;;5029975;28;20116;-68
2024/03/12 10:43:24;;;;;;;40.78;13.98;;;;;;;;;;5025480;28;20029;-68
2024/03/12 10:45:49;;;;;;;22.77;9.05;;;;;;;;;;5025243;28;20504;-68
2024/03/12 10:48:15;;;;;;;51.03;18.95;;;;;;;;;;5029672;28;20032;-69
2024/03/12 10:50:41;;;;;;;46.40;16.70;;;;;;;;;;5032360;28;20017;-69
2024/03/12 10:53:07;;;;;;;43.35;18.77;;;;;;;;;;5032221;28;20041;-70
2024/03/12 10:55:33;;;;;;;44.75;19.80;;;;;;;;;;5028839;28;20116;-69
2024/03/12 10:58:00;;;;;;;43.00;18.42;;;;;;;;;;5033160;28;20495;-69
2024/03/12 11:00:26;;;;;;;54.28;19.73;;;;;;;;;;5027030;28;20032;-69
2024/03/12 11:02:53;;;;;;;45.63;19.23;;;;;;;;;;5036296;28;20107;-69
2024/03/12 11:05:19;;;;;;;44.40;19.63;;;;;;;;;;5040433;28;20024;-69
2024/03/12 11:07:44;;;;;;;56.55;22.10;;;;;;;;;;5031670;28;20048;-69
2024/03/12 11:10:10;;;;;;;48.25;20.10;;;;;;;;;;5033314;28;20037;-69
2024/03/12 11:12:36;;;;;;;52.22;22.25;;;;;;;;;;5036624;28;20025;-69
2024/03/12 11:15:01;;;;;;;45.40;21.65;;;;;;;;;;5031820;28;20125;-69
2024/03/12 11:17:31;;;;;;;54.42;21.70;;;;;;;;;;5030904;28;20057;-69
2024/03/12 11:20:00;;;;;;;45.33;17.77;;;;;;;;;;5032322;28;20101;-69
2024/03/12 11:22:27;;;;;;;43.70;20.17;;;;;;;;;;5036649;28;20079;-69
2024/03/12 11:24:52;;;;;;;51.42;20.27;;;;;;;;;;5032459;28;20040;-69
2024/03/12 11:27:25;;;;;;;53.25;20.50;;;;;;;;;;5026225;28;20036;-69
2024/03/12 11:30:03;;;;;;;55.80;22.52;;;;;;;;;;5037489;28;20009;-69
2024/03/12 11:32:31;;;;;;;50.70;19.98;;;;;;;;;;5031750;28;20030;-69
2024/03/12 11:34:56;;;;;;;50.22;20.88;;;;;;;;;;5032376;28;20021;-69
2024/03/12 11:37:23;;;;;;;54.83;20.87;;;;;;;;;;5033409;28;20026;-69
2024/03/12 11:40:08;;;;;;;48.15;21.15;;;;;;;;;;5038163;28;20298;-69
2024/03/12 11:42:34;;;;;;;53.35;21.98;;;;;;;;;;5027939;28;20025;-69
2024/03/12 11:45:00;;;;;;;52.50;20.60;;;;;;;;;;5034119;28;20060;-69
2024/03/12 11:47:36;;;;;;;46.15;19.02;;;;;;;;;;5030277;28;20108;-69
2024/03/12 11:50:25;;;;;;;51.95;21.40;;;;;;;;;;5040541;28;20678;-69
2024/03/12 11:52:50;;;;;;;45.40;20.88;;;;;;;;;;5035994;28;20068;-70
2024/03/12 11:55:35;;;;;;;49.17;20.85;;;;;;;;;;5031986;28;20029;-69
2024/03/12 11:58:01;;;;;;;54.78;20.50;;;;;;;;;;5025909;28;20087;-69
2024/03/12 12:00:27;;;;;;;49.38;20.20;;;;;;;;;;5028767;28;20030;-69
2024/03/12 12:02:52;;;;;;;55.17;21.25;;;;;;;;;;5031463;28;20028;-69
2024/03/12 12:05:18;;;;;;;48.45;17.52;;;;;;;;;;5034056;28;20033;-69
2024/03/12 12:07:43;;;;;;;46.83;20.55;;;;;;;;;;5027128;28;20495;-69
2024/03/12 12:10:08;;;;;;;51.77;19.67;;;;;;;;;;5030954;28;20025;-69
2024/03/12 12:12:34;;;;;;;33.60;15.05;;;;;;;;;;5035466;28;20253;-69
2024/03/12 12:14:59;;;;;;;54.10;21.73;;;;;;;;;;5029068;28;20111;-69
2024/03/12 12:17:24;;;;;;;54.57;22.90;;;;;;;;;;5028442;28;20021;-69
2024/03/12 12:20:13;;;;;;;44.65;19.65;;;;;;;;;;5030370;28;20763;-69
2024/03/12 12:22:41;;;;;;;45.03;19.93;;;;;;;;;;5027327;28;20017;-69
2024/03/12 12:25:07;;;;;;;48.97;18.77;;;;;;;;;;5027376;28;20124;-69
2024/03/12 12:27:33;;;;;;;51.38;19.73;;;;;;;;;;5030738;28;20017;-69
2024/03/12 12:29:58;;;;;;;40.50;16.35;;;;;;;;;;5031299;28;20469;-69
2024/03/12 12:32:24;;;;;;;47.97;18.63;;;;;;;;;;5035211;28;20465;-69
2024/03/12 12:34:49;;;;;;;28.55;10.68;;;;;;;;;;5030012;28;20010;-69
2024/03/12 12:37:16;;;;;;;50.30;20.27;;;;;;;;;;5026382;28;20396;-69
2024/03/12 12:39:45;;;;;;;50.78;20.98;;;;;;;;;;5030433;28;20027;-69
2024/03/12 12:42:11;;;;;;;50.15;20.95;;;;;;;;;;5035087;28;20029;-69
2024/03/12 12:44:36;;;;;;;52.22;21.80;;;;;;;;;;5027102;28;20071;-69
2024/03/12 12:47:03;;;;;;;47.40;21.53;;;;;;;;;;5027891;28;20026;-69
2024/03/12 12:49:28;;;;;;;52.00;19.83;;;;;;;;;;5025628;28;20363;-69
2024/03/12 12:51:54;;;;;;;51.72;21.35;;;;;;;;;;5031745;28;20544;-70
2024/03/12 12:54:23;;;;;;;44.95;20.23;;;;;;;;;;5030913;28;20063;-69
2024/03/12 12:56:49;;;;;;;50.15;20.98;;;;;;;;;;5030416;28;20463;-69
2024/03/12 12:59:16;;;;;;;49.78;20.63;;;;;;;;;;5033511;28;20041;-69
2024/03/12 13:01:42;;;;;;;49.40;19.73;;;;;;;;;;5037850;28;20491;-70
2024/03/12 13:04:22;;;;;;;39.97;18.60;;;;;;;;;;5032515;28;20021;-69
2024/03/12 13:06:47;;;;;;;;;;;;;;;;;;5027028;28;20021;-70
2024/03/12 13:09:25;;;;;;;43.58;15.27;;;;;;;;;;5028419;28;19909;-69
2024/03/12 13:11:51;;;;;;;41.58;17.05;;;;;;;;;;5038004;28;20048;-69
2024/03/12 13:14:16;;;;;;;42.47;17.00;;;;;;;;;;5034334;28;20040;-67
2024/03/12 13:16:42;;;;;;;40.78;19.02;;;;;;;;;;5033033;28;20051;-67
2024/03/12 13:19:08;;;;;;;47.05;19.73;;;;;;;;;;5032324;28;20037;-67
2024/03/12 13:21:34;;;;;;;31.40;14.50;;;;;;;;;;5028975;28;20047;-69
2024/03/12 13:23:59;;;;;;;47.30;17.05;;;;;;;;;;5027114;28;20033;-69
2024/03/12 13:26:24;;;;;;;46.27;21.10;;;;;;;;;;5030822;28;20495;-69
2024/03/12 13:28:53;;;;;;;50.58;19.48;;;;;;;;;;5026819;28;20252;-69
2024/03/12 13:31:19;;;;;;;40.20;16.58;;;;;;;;;;5031405;28;20030;-69
2024/03/12 13:33:46;;;;;;;49.35;20.83;;;;;;;;;;5035785;28;20022;-69
2024/03/12 13:36:11;;;;;;;46.45;19.35;;;;;;;;;;5028638;28;20017;-70
2024/03/12 13:38:39;;;;;;;44.08;19.65;;;;;;;;;;5033232;28;20395;-70
2024/03/12 13:41:05;;;;;;;49.40;19.25;;;;;;;;;;5028734;28;20025;-70
2024/03/12 13:43:30;;;;;;;53.25;17.88;;;;;;;;;;5031519;28;20021;-70
2024/03/12 13:45:56;;;;;;;47.28;20.30;;;;;;;;;;5033185;28;20017;-69
2024/03/12 13:48:24;;;;;;;47.95;16.92;;;;;;;;;;5034905;28;20456;-69
2024/03/12 13:50:50;;;;;;;36.40;17.40;;;;;;;;;;5031561;28;20016;-70
2024/03/12 13:53:16;;;;;;;50.05;18.95;;;;;;;;;;5030193;28;20014;-69
2024/03/12 13:55:41;;;;;;;49.55;20.02;;;;;;;;;;5029191;28;20021;-70
2024/03/12 13:58:07;;;;;;;40.38;16.08;;;;;;;;;;5022607;28;20025;-70
2024/03/12 14:00:32;;;;;;;43.00;17.25;;;;;;;;;;5028167;28;20030;-69
2024/03/12 14:02:58;;;;;;;46.97;20.98;;;;;;;;;;5025512;28;20021;-69
2024/03/12 14:05:24;;;;;;;41.45;16.45;;;;;;;;;;5026897;28;20026;-69
2024/03/12 14:07:50;;;;;;;48.53;18.73;;;;;;;;;;5026730;28;20048;-69
2024/03/12 14:10:15;;;;;;;50.92;17.63;;;;;;;;;;5028782;28;20416;-69
2024/03/12 14:12:41;;;;;;;38.97;16.08;;;;;;;;;;5027339;28;20025;-69
2024/03/12 14:15:08;;;;;;;45.95;15.80;;;;;;;;;;5032542;28;20013;-69
2024/03/12 14:17:34;;;;;;;39.95;16.33;;;;;;;;;;5028037;28;20075;-69
2024/03/12 14:20:00;;;;;;;50.20;18.92;;;;;;;;;;5030861;28;20511;-69